RCTP

Taiwan Taoyuan International Airport

Taipei, Taiwan
TAF COR RCTP 181112Z 1812/1918 10012KT 9999 FEW020 TEMPO 1812/1815 11017KT BECMG 1816/1819 16005KT TEMPO 1823/1903 23005KT BECMG 1903/1905 35008KT FEW015 BKN032 TEMPO 1909/1916 03010KT 5000 BR FEW010 BKN017
Issued Valid From Valid To
Jan-18 @ 11:12 UTC
(33 minutes ago)
Jan-18 @ 12:00 UTC
(in 15 minutes)
Jan-19 @ 18:00 UTC
(-1 days ago)
Jan-18 @ 12:00 to Jan-18 @ 16:00
TAF COR RCTP 181112Z 1812/1918 10012KT 9999 FEW020
Wind Visibility Clouds
100° at 12 knots 10,000+ meters
  • Few at 2,000' AGL
Temporary Jan-18 @ 12:00 to Jan-18 @ 15:00
TEMPO 1812/1815 11017KT
Wind
110° at 17 knots
Becoming Jan-18 @ 16:00 to Jan-19 @ 03:00
BECMG 1816/1819 16005KT
Wind Visibility Clouds
160° at 5 knots 10,000+ meters
  • Few at 2,000' AGL
Temporary Jan-18 @ 23:00 to Jan-19 @ 03:00
TEMPO 1823/1903 23005KT
Wind
230° at 5 knots
Becoming Jan-19 @ 03:00 to Jan-19 @ 18:00
BECMG 1903/1905 35008KT FEW015 BKN032
Wind Visibility Clouds
350° at 8 knots 10,000+ meters
  • Few at 1,500' AGL
  • Broken at 3,200' AGL
Temporary Jan-19 @ 09:00 to Jan-19 @ 16:00
TEMPO 1909/1916 03010KT 5000 BR FEW010 BKN017
Wind Visibility Clouds Conditions
30° at 10 knots 5,005 meters
  • Few at 1,000' AGL
  • Broken at 1,700' AGL
  • Mist
TAF COR RCTP 181112Z 1812/1918 10012KT 9999 FEW020 TEMPO 1812/1815 11017KT BECMG 1816/1819 16005KT TEMPO 1823/1903 23005KT BECMG 1903/1905 35008KT FEW015 BKN032 TEMPO 1909/1916 03010KT 5000 BR FEW010 BKN017
Issued Jan-18 @ 11:12 UTC
(33 minutes ago)
Valid From Jan-18 @ 12:00 UTC
(in 15 minutes)
Valid To Jan-19 @ 18:00 UTC
(-1 days ago)
Jan-18 @ 12:00 - Jan-18 @ 16:00
Wind Visibility
100° at 12 knots 10,000+ meters
Clouds
  • Few at 2,000' AGL
Temporary Jan-18 @ 12:00 - Jan-18 @ 15:00
Wind
110° at 17 knots
Becoming Jan-18 @ 16:00 - Jan-19 @ 03:00
Wind Visibility
160° at 5 knots 10,000+ meters
Clouds
  • Few at 2,000' AGL
Temporary Jan-18 @ 23:00 - Jan-19 @ 03:00
Wind
230° at 5 knots
Becoming Jan-19 @ 03:00 - Jan-19 @ 18:00
Wind Visibility
350° at 8 knots 10,000+ meters
Clouds
  • Few at 1,500' AGL
  • Broken at 3,200' AGL
Temporary Jan-19 @ 09:00 - Jan-19 @ 16:00
Wind Visibility
30° at 10 knots 5,005 meters
Clouds
  • Few at 1,000' AGL
  • Broken at 1,700' AGL
Conditions
  • Mist